Time;durP1;ratioP1;P1;durP2;ratioP2;P2;SDS_P1;SDS_P2;PMS_P1;PMS_P2;Temp;Humidity;BMP_temperature;BMP_pressure;BME280_temperature;BME280_humidity;BME280_pressure;Samples;Min_cycle;Max_cycle;Signal;HPM_P1;HPM_P2
2022/05/13 00:02:15;;;;;;;7.78;4.22;;;;;;;14.71;72.56;100373.88;2928790;80;21611;-85
2022/05/13 00:06:16;;;;;;;16.23;3.72;;;;;;;14.68;72.35;100380.33;2926176;80;21006;-85
2022/05/13 00:10:18;;;;;;;5.78;3.92;;;;;;;14.74;71.96;100362.00;2910207;80;21004;-85
2022/05/13 00:14:19;;;;;;;7.03;4.67;;;;;;;14.80;72.03;100362.76;2937360;80;20955;-84
2022/05/13 00:18:21;;;;;;;7.15;4.65;;;;;;;14.83;71.70;100358.44;2896631;80;21006;-85
2022/05/13 00:22:22;;;;;;;13.38;6.83;;;;;;;14.85;71.09;100361.80;2927953;80;20959;-85
2022/05/13 00:26:24;;;;;;;6.00;4.37;;;;;;;14.86;70.74;100366.16;2925488;80;21521;-84
2022/05/13 00:30:27;;;;;;;6.87;4.28;;;;;;;14.88;70.76;100358.81;2896775;81;21018;-84
2022/05/13 00:34:28;;;;;;;7.67;5.83;;;;;;;14.88;70.69;100354.80;2929894;80;21014;-84
2022/05/13 00:38:29;;;;;;;6.87;4.53;;;;;;;14.92;70.93;100353.48;2925542;80;21076;-85
2022/05/13 00:42:30;;;;;;;7.45;5.08;;;;;;;14.94;70.97;100344.83;2925686;80;21037;-85
2022/05/13 00:46:33;;;;;;;8.93;5.15;;;;;;;14.98;71.32;100334.14;2897610;80;21584;-85
2022/05/13 00:50:37;;;;;;;13.05;5.12;;;;;;;14.99;71.05;100342.52;2925588;80;21022;-84
2022/05/13 00:54:41;;;;;;;7.78;4.37;;;;;;;14.99;71.29;100339.84;2887594;80;21064;-84
2022/05/13 00:58:47;;;;;;;9.33;5.00;;;;;;;14.98;71.71;100346.68;2926430;80;20971;-84
2022/05/13 01:02:48;;;;;;;5.00;4.37;;;;;;;14.95;71.26;100349.19;2935486;80;21019;-85
2022/05/13 01:06:55;;;;;;;7.65;4.65;;;;;;;14.92;71.32;100344.11;2907239;80;21133;-84
2022/05/13 01:10:59;;;;;;;5.80;4.15;;;;;;;14.90;71.38;100343.42;2949919;80;21547;-85
2022/05/13 01:15:08;;;;;;;9.30;5.30;;;;;;;14.88;71.37;100344.59;2950525;80;21078;-85
2022/05/13 01:19:09;;;;;;;8.65;4.40;;;;;;;14.85;71.52;100342.56;2918654;80;21344;-85
2022/05/13 01:23:17;;;;;;;7.60;5.55;;;;;;;14.86;71.64;100338.03;2903835;81;21525;-85
2022/05/13 01:27:18;;;;;;;6.50;3.95;;;;;;;14.77;71.44;100336.28;2916049;81;21014;-85
2022/05/13 01:31:32;;;;;;;9.23;5.10;;;;;;;14.69;72.00;100329.80;2915343;81;21028;-84
2022/05/13 01:35:33;;;;;;;8.08;4.42;;;;;;;14.52;72.24;100330.62;2905514;80;21553;-84
2022/05/13 01:39:35;;;;;;;10.15;4.95;;;;;;;14.49;72.31;100334.95;2906043;81;21046;-85
2022/05/13 01:43:39;;;;;;;10.63;5.12;;;;;;;14.44;72.56;100322.00;2906360;81;21015;-85
2022/05/13 01:47:41;;;;;;;11.30;4.67;;;;;;;14.39;72.72;100319.80;2898806;81;21022;-84
2022/05/13 01:51:42;;;;;;;8.13;4.28;;;;;;;14.39;72.97;100320.28;2917279;80;21510;-84
2022/05/13 01:55:43;;;;;;;11.83;4.67;;;;;;;14.30;73.30;100320.69;2901124;80;21094;-84
2022/05/13 01:59:44;;;;;;;10.08;4.70;;;;;;;14.17;73.61;100318.87;2933300;81;21547;-84
2022/05/13 02:03:45;;;;;;;5.47;3.45;;;;;;;14.05;73.82;100313.70;2922513;81;21012;-84
2022/05/13 02:07:46;;;;;;;6.15;4.17;;;;;;;13.98;73.71;100303.27;2874673;81;20982;-85
2022/05/13 02:11:47;;;;;;;8.40;3.83;;;;;;;13.96;73.54;100302.57;2929378;80;21015;-84
2022/05/13 02:15:49;;;;;;;7.00;3.92;;;;;;;13.90;73.54;100309.34;2923493;80;21162;-85
2022/05/13 02:19:50;;;;;;;9.00;4.72;;;;;;;13.85;73.15;100305.77;2929103;80;21081;-85
2022/05/13 02:23:52;;;;;;;9.05;4.20;;;;;;;13.85;73.49;100312.94;2920681;80;20987;-84
2022/05/13 02:27:53;;;;;;;11.90;4.40;;;;;;;13.81;73.65;100311.06;2922439;80;21071;-85
2022/05/13 02:31:54;;;;;;;7.72;4.08;;;;;;;13.78;73.94;100321.20;2938744;80;20984;-84
2022/05/13 02:35:56;;;;;;;6.03;4.42;;;;;;;13.73;73.82;100309.59;2938154;80;21041;-84
2022/05/13 02:39:57;;;;;;;8.75;3.95;;;;;;;13.71;73.70;100312.91;2927196;80;20987;-84
2022/05/13 02:43:59;;;;;;;5.80;4.17;;;;;;;13.66;73.61;100312.52;2924620;80;21337;-84
2022/05/13 02:48:00;;;;;;;7.42;4.08;;;;;;;13.58;73.67;100303.06;2923404;79;21054;-84
2022/05/13 02:52:01;;;;;;;9.65;4.83;;;;;;;13.56;73.61;100308.06;2938389;79;21007;-83
2022/05/13 02:56:02;;;;;;;7.80;4.42;;;;;;;13.54;73.51;100308.67;2853926;80;21030;-84
2022/05/13 03:00:06;;;;;;;7.62;4.42;;;;;;;13.48;73.62;100293.73;2941250;79;21030;-85
2022/05/13 03:04:07;;;;;;;14.07;4.25;;;;;;;13.41;73.62;100297.44;2888764;81;21020;-86
2022/05/13 03:08:08;;;;;;;7.12;4.05;;;;;;;13.32;74.56;100295.14;2899243;81;21518;-85
2022/05/13 03:12:11;;;;;;;5.92;4.12;;;;;;;13.27;75.07;100297.41;2905746;81;20995;-85
2022/05/13 03:16:19;;;;;;;12.05;4.67;;;;;;;13.31;75.33;100295.27;2898609;81;21026;-84
2022/05/13 03:20:22;;;;;;;8.05;3.87;;;;;;;13.28;75.38;100290.56;2912541;80;21010;-85
2022/05/13 03:24:23;;;;;;;3.90;3.47;;;;;;;13.32;75.29;100291.61;2919241;79;21106;-85
2022/05/13 03:28:24;;;;;;;12.07;5.03;;;;;;;13.33;76.00;100294.63;2883283;80;21058;-85
2022/05/13 03:32:25;;;;;;;10.23;5.10;;;;;;;13.26;76.24;100303.70;2933850;80;21080;-85
2022/05/13 03:36:26;;;;;;;10.98;5.85;;;;;;;13.30;77.39;100291.77;2902472;81;21066;-84
2022/05/13 03:40:27;;;;;;;5.65;4.42;;;;;;;13.20;78.30;100283.77;2918124;81;21006;-83
2022/05/13 03:44:30;;;;;;;10.68;5.25;;;;;;;13.15;77.99;100284.67;2910841;80;20976;-84
2022/05/13 03:48:32;;;;;;;14.83;6.70;;;;;;;13.21;78.09;100280.59;2881188;80;21006;-85
2022/05/13 03:52:34;;;;;;;18.30;7.53;;;;;;;13.23;78.82;100271.46;2906760;81;21117;-84
2022/05/13 03:56:35;;;;;;;15.10;6.12;;;;;;;13.31;78.79;100277.91;2911235;80;21086;-85
2022/05/13 04:00:36;;;;;;;8.58;5.62;;;;;;;13.56;79.29;100278.66;2908641;81;21003;-84
2022/05/13 04:08:57;;;;;;;11.73;7.10;;;;;;;14.06;79.04;100285.97;2860658;81;21078;-82
2022/05/13 04:17:17;;;;;;;11.18;5.95;;;;;;;14.89;79.05;100283.34;2927183;79;21051;-83
2022/05/13 04:21:25;;;;;;;8.85;4.95;;;;;;;15.91;76.21;100293.08;2927970;79;21035;-85
2022/05/13 04:25:26;;;;;;;10.10;4.75;;;;;;;17.02;77.73;100294.87;2922696;80;20978;-88
2022/05/13 04:29:27;;;;;;;10.75;5.40;;;;;;;18.13;72.88;100299.19;2922324;79;21122;-84
2022/05/13 04:33:29;;;;;;;16.95;4.72;;;;;;;18.78;66.70;100285.51;2930544;79;21030;-84
2022/05/13 04:37:30;;;;;;;9.65;5.17;;;;;;;19.34;67.21;100288.44;2930949;79;20964;-83
2022/05/13 04:45:51;;;;;;;14.85;6.12;;;;;;;19.51;65.32;100294.00;2911764;79;21073;-84
2022/05/13 04:49:53;;;;;;;18.82;5.75;;;;;;;20.10;64.84;100284.23;2930256;80;21079;-84
2022/05/13 04:53:56;;;;;;;11.15;4.70;;;;;;;20.54;63.72;100287.02;2826151;82;21042;-83
2022/05/13 04:57:57;;;;;;;29.82;8.35;;;;;;;20.90;60.72;100295.61;2906150;81;21003;-83
2022/05/13 05:01:58;;;;;;;5.83;3.20;;;;;;;20.87;60.35;100293.80;2909148;81;20959;-84
2022/05/13 05:06:00;;;;;;;6.83;3.62;;;;;;;21.01;60.01;100291.55;2910630;81;21086;-84
2022/05/13 05:10:01;;;;;;;13.88;3.70;;;;;;;21.08;59.01;100291.61;2925936;80;21083;-83
2022/05/13 05:14:02;;;;;;;6.45;3.52;;;;;;;21.21;58.90;100287.64;2905603;81;21022;-84
2022/05/13 05:18:03;;;;;;;6.70;3.70;;;;;;;21.19;58.25;100285.66;2888027;82;21093;-84
2022/05/13 05:22:05;;;;;;;7.05;4.58;;;;;;;21.81;59.45;100300.80;2899721;80;20987;-84
2022/05/13 05:26:07;;;;;;;8.38;4.10;;;;;;;22.14;57.51;100298.42;2947671;80;21574;-84
2022/05/13 05:30:10;;;;;;;7.20;5.45;;;;;;;22.06;57.28;100292.16;2913031;81;21011;-84
2022/05/13 05:34:13;;;;;;;6.62;3.87;;;;;;;21.93;57.47;100296.15;2888471;81;21030;-84
2022/05/13 05:38:14;;;;;;;6.22;3.52;;;;;;;21.71;58.15;100299.45;2909563;81;21542;-83
2022/05/13 05:42:15;;;;;;;11.03;4.12;;;;;;;21.43;58.88;100296.23;2922448;80;21040;-83
2022/05/13 05:46:16;;;;;;;6.50;4.65;;;;;;;21.12;59.95;100285.59;2936777;80;21012;-83
2022/05/13 05:50:19;;;;;;;4.50;3.33;;;;;;;20.92;61.09;100288.14;2881173;81;21000;-83
2022/05/13 05:58:40;;;;;;;7.90;4.30;;;;;;;21.11;59.87;100289.33;2948605;80;21050;-83
2022/05/13 06:02:41;;;;;;;6.78;3.33;;;;;;;21.03;59.20;100292.19;2947984;80;21688;-83
2022/05/13 06:06:43;;;;;;;12.30;7.75;;;;;;;20.86;59.01;100284.02;2898032;80;21000;-84
2022/05/13 06:10:44;;;;;;;24.20;15.63;;;;;;;21.18;59.20;100281.28;2923391;80;20955;-84
2022/05/13 06:14:45;;;;;;;7.62;4.35;;;;;;;21.71;60.68;100296.75;2923670;80;21037;-83
2022/05/13 06:18:47;;;;;;;10.60;3.87;;;;;;;21.59;58.86;100297.79;2923783;80;20952;-83
2022/05/13 06:22:48;;;;;;;9.70;4.22;;;;;;;21.28;59.40;100299.05;2923426;80;20980;-83
2022/05/13 06:26:51;;;;;;;5.28;3.22;;;;;;;21.36;60.14;100294.83;2948506;80;21022;-84
2022/05/13 06:30:52;;;;;;;8.50;3.60;;;;;;;21.49;60.74;100304.91;2941770;80;21026;-83
2022/05/13 06:34:53;;;;;;;10.30;3.30;;;;;;;21.54;60.41;100303.82;2910877;81;21090;-82
2022/05/13 06:38:56;;;;;;;5.35;2.17;;;;;;;21.73;61.14;100302.83;2898083;82;21068;-83
2022/05/13 06:42:57;;;;;;;8.23;3.37;;;;;;;21.86;58.63;100299.35;2898994;81;21006;-83
2022/05/13 06:46:58;;;;;;;3.75;2.15;;;;;;;21.82;60.63;100296.20;2903871;81;20987;-83
2022/05/13 06:51:01;;;;;;;4.78;1.98;;;;;;;21.95;59.54;100287.30;2911121;81;21004;-83
2022/05/13 06:55:03;;;;;;;3.10;1.60;;;;;;;22.00;59.76;100284.00;2897195;82;21055;-84
2022/05/13 06:59:05;;;;;;;5.03;1.90;;;;;;;22.17;58.48;100274.48;2889156;80;20990;-83
2022/05/13 07:03:13;;;;;;;7.08;3.10;;;;;;;22.62;54.35;100273.17;2929882;80;20986;-83
2022/05/13 07:07:15;;;;;;;4.58;1.98;;;;;;;23.11;52.72;100262.97;2928237;80;21035;-83
2022/05/13 07:11:21;;;;;;;3.02;2.37;;;;;;;23.80;53.78;100266.23;2930371;79;21029;-83
2022/05/13 07:15:23;;;;;;;13.05;2.85;;;;;;;24.17;50.80;100259.39;2923009;80;21043;-84
2022/05/13 07:19:24;;;;;;;4.15;1.72;;;;;;;24.19;50.46;100257.32;2890486;80;21055;-83
2022/05/13 07:23:25;;;;;;;16.77;1.82;;;;;;;24.20;49.75;100260.34;2817496;80;21062;-84
2022/05/13 07:27:26;;;;;;;5.78;2.27;;;;;;;24.74;49.59;100265.43;2915003;80;21030;-83
2022/05/13 07:31:27;;;;;;;15.05;3.47;;;;;;;25.29;48.87;100258.52;2932281;80;21006;-84
2022/05/13 07:35:28;;;;;;;1.77;0.82;;;;;;;25.42;48.54;100245.29;2930882;80;20999;-84
2022/05/13 07:43:50;;;;;;;7.05;1.40;;;;;;;25.86;45.80;100231.63;2928886;80;20990;-84
2022/05/13 07:47:51;;;;;;;4.08;1.37;;;;;;;26.13;44.47;100222.58;2930589;80;21050;-84
2022/05/13 07:51:52;;;;;;;2.65;1.27;;;;;;;26.36;44.46;100219.14;2876391;80;21081;-84
2022/05/13 07:55:54;;;;;;;6.37;1.15;;;;;;;26.27;44.09;100223.80;2917585;80;20979;-83
2022/05/13 08:04:15;;;;;;;3.15;1.17;;;;;;;26.30;46.43;100226.86;2916165;80;21022;-83
2022/05/13 08:08:21;;;;;;;1.52;1.17;;;;;;;26.29;45.95;100223.02;2904739;80;20982;-84
2022/05/13 08:12:22;;;;;;;3.62;1.52;;;;;;;26.22;45.36;100215.75;2913967;80;21026;-83
2022/05/13 08:16:29;;;;;;;2.50;1.30;;;;;;;26.21;44.63;100215.45;2942851;80;20987;-83
2022/05/13 08:20:31;;;;;;;3.60;1.40;;;;;;;26.38;45.66;100208.83;2936338;80;21022;-83
2022/05/13 08:24:32;;;;;;;4.60;1.52;;;;;;;26.45;44.74;100207.89;2925178;80;21022;-83
2022/05/13 08:28:33;;;;;;;5.72;0.98;;;;;;;26.75;43.87;100195.55;2924935;80;21706;-84
2022/05/13 08:32:37;;;;;;;4.47;1.55;;;;;;;26.87;43.80;100195.58;2934273;78;21035;-83
2022/05/13 08:36:40;;;;;;;1.20;1.10;;;;;;;26.86;44.40;100194.47;2933507;80;20999;-84
2022/05/13 08:40:52;;;;;;;2.45;1.35;;;;;;;26.61;42.69;100186.76;2939107;80;21002;-83
2022/05/13 08:44:54;;;;;;;1.30;0.80;;;;;;;26.23;42.84;100196.97;2933869;80;21066;-84
2022/05/13 08:49:44;;;;;;;2.40;1.22;;;;;;;26.38;44.71;100191.11;2905932;80;21038;-83
2022/05/13 08:54:15;;;;;;;1.57;1.47;;;;;;;26.55;44.28;100186.86;2910917;80;21463;-84
2022/05/13 08:58:31;;;;;;;3.20;1.02;;;;;;;26.75;44.11;100189.27;2916328;80;21041;-83
2022/05/13 09:02:43;;;;;;;2.60;1.77;;;;;;;26.78;43.23;100183.34;2933867;80;21129;-84
2022/05/13 09:06:50;;;;;;;5.40;1.30;;;;;;;26.44;43.19;100181.17;2913382;80;21015;-83
2022/05/13 09:11:34;;;;;;;3.37;1.15;;;;;;;26.51;44.71;100168.77;2921281;80;21022;-84
2022/05/13 09:15:48;;;;;;;4.20;1.35;;;;;;;26.58;43.51;100162.69;2912510;80;21030;-83
2022/05/13 09:20:14;;;;;;;1.47;1.07;;;;;;;26.62;43.71;100159.78;2824306;83;21047;-84
2022/05/13 09:24:15;;;;;;;4.72;1.60;;;;;;;26.79;45.68;100155.80;2814779;83;21386;-84
2022/05/13 09:28:16;;;;;;;1.35;1.25;;;;;;;26.71;43.15;100158.05;2830826;83;21047;-84
2022/05/13 09:32:28;;;;;;;7.90;1.37;;;;;;;26.63;43.54;100151.89;2821057;83;21122;-84
2022/05/13 09:36:33;;;;;;;5.67;1.65;;;;;;;26.66;44.59;100135.05;2825203;83;21460;-83
2022/05/13 09:40:34;;;;;;;29.27;6.70;;;;;;;26.66;45.48;100124.69;2819420;83;21381;-84
2022/05/13 09:44:35;;;;;;;239.90;38.75;;;;;;;26.74;45.41;100118.05;2829048;83;21062;-83
2022/05/13 09:48:42;;;;;;;4.62;2.33;;;;;;;26.74;44.56;100107.13;2824676;83;21114;-84
2022/05/13 09:52:43;;;;;;;6.80;2.37;;;;;;;26.86;45.21;100116.16;2873513;80;21027;-84
2022/05/13 09:56:48;;;;;;;4.65;1.60;;;;;;;27.02;44.42;100121.95;2910936;81;21051;-83
2022/05/13 10:00:54;;;;;;;8.20;2.10;;;;;;;27.11;45.19;100117.77;2901383;80;20998;-84
2022/05/13 10:05:23;;;;;;;4.47;1.72;;;;;;;26.96;44.77;100104.63;2927943;78;21093;-83
2022/05/13 10:13:57;;;;;;;5.80;2.17;;;;;;;26.87;44.82;100073.34;2927652;80;20978;-84
2022/05/13 10:18:04;;;;;;;4.97;2.02;;;;;;;26.76;44.41;100065.44;2917872;80;21006;-83
2022/05/13 10:22:20;;;;;;;4.97;1.90;;;;;;;26.71;44.86;100077.06;2895237;80;21030;-84
2022/05/13 10:26:25;;;;;;;5.42;1.47;;;;;;;26.69;44.64;100072.90;2928354;80;21728;-83
2022/05/13 10:30:48;;;;;;;3.42;1.52;;;;;;;26.61;47.61;100065.91;2922092;80;20972;-84
2022/05/13 10:34:54;;;;;;;3.02;1.60;;;;;;;26.60;46.31;100063.73;2929618;80;20998;-83
2022/05/13 10:39:19;;;;;;;13.35;2.80;;;;;;;26.56;45.56;100077.55;2929910;80;21058;-84
2022/05/13 10:43:42;;;;;;;8.63;2.27;;;;;;;26.78;46.13;100072.30;2905228;80;20990;-83
2022/05/13 10:48:05;;;;;;;3.58;2.45;;;;;;;26.74;46.86;100077.13;2931013;80;21602;-84
2022/05/13 10:52:21;;;;;;;6.97;1.80;;;;;;;26.76;46.32;100073.63;2915556;80;21026;-83
2022/05/13 10:56:39;;;;;;;2.45;1.32;;;;;;;26.70;47.42;100077.28;2926922;80;21014;-84
2022/05/13 11:00:49;;;;;;;38.38;7.03;;;;;;;26.52;47.53;100074.97;2925890;80;21046;-84
2022/05/13 11:05:10;;;;;;;4.35;0.95;;;;;;;26.55;47.66;100072.31;2930509;80;21513;-84
2022/05/13 11:09:23;;;;;;;4.75;1.80;;;;;;;26.12;46.47;100070.17;2934436;80;21034;-83
2022/05/13 11:13:52;;;;;;;24.32;4.33;;;;;;;25.82;47.07;100060.98;2913871;80;20971;-84
2022/05/13 11:18:15;;;;;;;4.55;2.33;;;;;;;25.84;47.60;100048.51;2932328;80;21054;-84
2022/05/13 11:22:33;;;;;;;3.07;1.83;;;;;;;25.79;46.33;100036.94;2939371;80;21016;-84
2022/05/13 11:26:40;;;;;;;1.47;1.35;;;;;;;25.59;47.93;100029.91;2934632;78;21085;-84
2022/05/13 11:31:27;;;;;;;1.75;1.32;;;;;;;25.68;46.82;100037.21;2899651;80;21021;-84
2022/05/13 11:35:43;;;;;;;4.90;1.75;;;;;;;25.78;46.61;100031.20;2929202;80;21098;-83
2022/05/13 11:40:22;;;;;;;2.75;0.98;;;;;;;25.70;46.14;100032.36;2946111;80;21029;-84
2022/05/13 11:44:40;;;;;;;4.45;1.55;;;;;;;25.83;47.99;100040.04;2917130;80;21031;-84
2022/05/13 11:48:52;;;;;;;3.42;1.65;;;;;;;25.57;46.26;100036.66;2901229;80;21073;-83
2022/05/13 11:52:54;;;;;;;5.90;1.30;;;;;;;25.51;48.50;100024.25;2899075;81;20990;-82
2022/05/13 11:57:30;;;;;;;4.33;1.62;;;;;;;25.46;45.80;100007.75;2902536;80;21054;-84
2022/05/13 12:01:49;;;;;;;2.90;1.20;;;;;;;25.55;46.50;100005.56;2905300;80;21002;-84
2022/05/13 12:06:04;;;;;;;3.22;1.92;;;;;;;25.51;45.94;99997.56;2930836;80;21028;-84
2022/05/13 12:10:10;;;;;;;5.30;2.30;;;;;;;25.69;48.09;99992.57;2928589;80;20935;-83
2022/05/13 12:14:39;;;;;;;3.25;1.52;;;;;;;25.69;47.03;99983.59;2925736;80;21037;-84
2022/05/13 12:19:00;;;;;;;7.55;1.45;;;;;;;25.74;47.92;99965.45;2897592;81;21038;-84
2022/05/13 12:23:28;;;;;;;4.40;1.80;;;;;;;25.81;47.13;99977.09;2917895;80;21370;-83
2022/05/13 12:27:43;;;;;;;4.20;1.47;;;;;;;25.72;46.70;99979.84;2873913;80;21000;-84
2022/05/13 12:31:56;;;;;;;3.33;1.50;;;;;;;25.64;46.81;99976.11;2928138;80;21029;-84
2022/05/13 12:40:48;;;;;;;13.13;2.70;;;;;;;25.86;45.92;99975.55;2927794;81;21016;-84
2022/05/13 12:45:00;;;;;;;65.87;12.13;;;;;;;25.98;44.88;99975.03;2903777;81;21010;-84
2022/05/13 12:49:07;;;;;;;33.15;4.97;;;;;;;25.83;46.76;99980.92;2929878;79;20960;-84
2022/05/13 12:53:32;;;;;;;2.40;1.60;;;;;;;25.45;45.02;99988.40;2936418;79;20987;-83
2022/05/13 12:57:39;;;;;;;2.65;2.08;;;;;;;25.27;45.42;99988.45;2931467;80;21094;-84
2022/05/13 13:01:49;;;;;;;68.85;8.00;;;;;;;25.15;47.08;99994.66;2921220;79;21082;-83
2022/05/13 13:06:02;;;;;;;64.00;10.98;;;;;;;25.04;45.31;99988.11;2948790;79;20956;-84
2022/05/13 13:10:04;;;;;;;3.12;1.87;;;;;;;25.02;45.38;99984.79;2939292;79;21024;-85
2022/05/13 13:14:20;;;;;;;47.40;7.10;;;;;;;25.23;45.23;99990.28;2944746;79;20976;-84
2022/05/13 13:18:32;;;;;;;;;;;;;;;25.19;44.51;99970.03;2913785;80;21058;-86
2022/05/13 13:22:41;;;;;;;10.13;2.10;;;;;;;25.04;46.35;99981.85;2935012;80;20116;-85
2022/05/13 13:26:47;;;;;;;2.92;1.70;;;;;;;24.60;44.94;99998.23;2934272;80;20972;-84
2022/05/13 13:31:05;;;;;;;20.72;4.40;;;;;;;24.81;45.42;99975.23;2903600;79;21007;-84
2022/05/13 13:35:08;;;;;;;4.60;1.60;;;;;;;25.10;45.87;99994.53;2936002;80;21046;-85
2022/05/13 13:39:09;;;;;;;4.10;2.02;;;;;;;24.98;45.94;99992.30;2928510;79;21000;-84
2022/05/13 13:43:36;;;;;;;23.70;5.40;;;;;;;25.23;45.12;99987.56;2929123;80;21042;-85
2022/05/13 13:47:42;;;;;;;10.20;2.85;;;;;;;24.93;43.20;100003.31;2926028;80;21038;-85
2022/05/13 13:51:53;;;;;;;17.48;3.70;;;;;;;25.12;44.32;99983.43;2943913;78;21246;-84
2022/05/13 13:56:09;;;;;;;92.12;15.72;;;;;;;25.20;42.26;99976.29;2928789;80;21013;-85
2022/05/13 14:00:33;;;;;;;14.85;3.60;;;;;;;25.33;43.54;99988.88;2929886;80;21076;-84
2022/05/13 14:04:38;;;;;;;8.10;1.87;;;;;;;25.17;42.48;100002.61;2929115;80;20999;-84
2022/05/13 14:08:40;;;;;;;5.60;1.40;;;;;;;25.04;41.58;99984.57;2920811;80;21055;-85
2022/05/13 14:12:43;;;;;;;6.22;2.00;;;;;;;24.86;41.18;99987.61;2920124;80;21014;-84
2022/05/13 14:16:56;;;;;;;64.82;12.15;;;;;;;24.91;40.16;99987.75;2925283;80;21006;-84
2022/05/13 14:21:08;;;;;;;10.60;1.62;;;;;;;24.86;40.25;99994.92;2910453;80;21043;-84
2022/05/13 14:25:12;;;;;;;1.82;0.93;;;;;;;24.85;41.46;99995.47;2913543;80;21046;-84
2022/05/13 14:29:14;;;;;;;4.50;1.63;;;;;;;24.57;42.72;100014.49;2934665;80;21283;-85
2022/05/13 14:33:16;;;;;;;12.95;3.05;;;;;;;24.59;43.57;100036.84;2875049;81;21750;-84
2022/05/13 14:37:22;;;;;;;8.03;1.75;;;;;;;24.51;42.94;100023.53;2937591;80;21173;-84
2022/05/13 14:41:25;;;;;;;11.45;2.85;;;;;;;24.46;42.11;100028.27;2922330;80;21006;-85
2022/05/13 14:45:37;;;;;;;189.77;28.73;;;;;;;24.32;40.23;100037.63;2927245;80;21050;-84
2022/05/13 14:49:55;;;;;;;5.45;1.77;;;;;;;24.24;41.53;100030.59;2934092;80;21011;-84
2022/05/13 14:54:00;;;;;;;3.90;1.80;;;;;;;24.07;42.02;100021.63;2910293;80;21010;-85
2022/05/13 14:58:13;;;;;;;4.58;1.60;;;;;;;24.05;41.54;100028.33;2877761;81;21757;-85
2022/05/13 15:02:34;;;;;;;5.25;1.62;;;;;;;23.98;42.03;100024.30;2901747;81;21002;-86
2022/05/13 15:06:49;;;;;;;17.25;3.12;;;;;;;23.75;41.63;100043.34;2936489;80;21010;-87
2022/05/13 15:10:50;;;;;;;17.02;2.65;;;;;;;23.68;40.98;100052.08;2918867;80;21546;-85
2022/05/13 15:14:51;;;;;;;3.15;2.15;;;;;;;23.64;41.99;100048.14;2902413;80;21049;-85
2022/05/13 15:18:53;;;;;;;7.12;1.87;;;;;;;23.50;41.71;100060.96;2945919;79;21022;-85
2022/05/13 15:22:54;;;;;;;14.18;2.75;;;;;;;23.52;42.33;100066.46;2930925;80;21050;-85
2022/05/13 15:26:55;;;;;;;8.98;2.05;;;;;;;23.58;41.57;100065.27;2910622;81;21017;-86
2022/05/13 15:30:56;;;;;;;9.43;1.62;;;;;;;23.65;41.46;100059.30;2913336;80;21034;-85
2022/05/13 15:34:58;;;;;;;7.15;1.85;;;;;;;23.67;41.08;100070.77;2904953;81;21013;-84
2022/05/13 15:39:00;;;;;;;3.12;1.52;;;;;;;23.63;42.05;100072.27;2913011;80;21042;-85
2022/05/13 15:43:01;;;;;;;33.18;5.40;;;;;;;23.49;42.84;100080.47;2910406;81;21026;-86
2022/05/13 15:47:05;;;;;;;3.90;2.20;;;;;;;23.50;42.56;100084.03;2905438;81;21014;-85
2022/05/13 15:55:30;;;;;;;7.67;1.45;;;;;;;23.63;43.21;100078.51;2921798;80;21346;-86
2022/05/13 15:59:32;;;;;;;7.70;1.50;;;;;;;23.75;43.61;100073.22;2917921;81;21011;-85
2022/05/13 16:03:33;;;;;;;6.03;1.70;;;;;;;23.67;42.99;100081.63;2914427;80;21000;-85
2022/05/13 16:07:36;;;;;;;14.23;3.08;;;;;;;23.59;42.92;100088.69;2859386;81;21113;-86
2022/05/13 16:11:39;;;;;;;6.33;2.25;;;;;;;23.51;42.57;100087.05;2888355;81;21508;-86
2022/05/13 16:15:45;;;;;;;7.47;1.98;;;;;;;23.37;42.09;100087.11;2847575;82;21042;-86
2022/05/13 16:19:50;;;;;;;11.25;2.05;;;;;;;23.12;42.26;100084.24;2911594;79;21015;-86
2022/05/13 16:23:53;;;;;;;2.95;1.40;;;;;;;22.91;42.37;100099.74;2912792;81;21026;-85
2022/05/13 16:28:00;;;;;;;6.47;1.57;;;;;;;22.81;43.46;100096.11;2908114;81;21035;-86
2022/05/13 16:32:02;;;;;;;2.83;1.70;;;;;;;22.73;42.86;100096.34;2883933;82;21003;-86
2022/05/13 16:36:05;;;;;;;4.83;1.55;;;;;;;22.64;43.36;100112.00;2921136;80;21003;-86
2022/05/13 16:40:09;;;;;;;3.62;1.57;;;;;;;22.47;44.29;100124.30;2923059;80;21018;-85
2022/05/13 16:44:11;;;;;;;6.10;2.27;;;;;;;22.21;43.87;100128.64;2917175;80;21019;-85
2022/05/13 16:48:12;;;;;;;6.45;2.33;;;;;;;22.15;43.47;100132.16;2923728;80;21023;-87
2022/05/13 16:52:13;;;;;;;7.83;1.57;;;;;;;22.18;42.99;100138.52;2871161;81;20959;-86
2022/05/13 16:56:14;;;;;;;7.53;2.55;;;;;;;22.03;43.05;100149.54;2911690;80;21015;-85
2022/05/13 17:00:20;;;;;;;4.53;1.87;;;;;;;21.91;44.69;100154.22;2897992;80;21103;-86
2022/05/13 17:04:20;;;;;;;;;;;;;;;21.54;44.93;100176.09;2913575;80;21027;-85
2022/05/13 17:08:21;;;;;;;2.58;1.55;;;;;;;21.29;44.40;100166.82;2906018;81;20125;-85
2022/05/13 17:16:42;;;;;;;7.65;2.95;;;;;;;21.13;45.83;100180.98;2902681;81;21054;-85
2022/05/13 17:20:43;;;;;;;3.90;2.47;;;;;;;21.09;46.61;100194.58;2893137;81;20975;-86
2022/05/13 17:24:48;;;;;;;3.58;2.40;;;;;;;20.98;47.50;100198.12;2901674;81;20993;-86
2022/05/13 17:28:48;;;;;;;5.15;2.47;;;;;;;20.67;47.77;100220.95;2892832;80;21016;-86
2022/05/13 17:32:49;;;;;;;9.75;2.92;;;;;;;20.52;48.33;100216.94;2880903;79;21025;-84
2022/05/13 17:36:54;;;;;;;7.58;2.58;;;;;;;20.32;48.73;100217.26;2910649;80;21677;-86
2022/05/13 17:40:55;;;;;;;3.80;2.72;;;;;;;20.12;48.84;100244.88;2896656;80;21043;-88
2022/05/13 17:44:57;;;;;;;7.40;2.45;;;;;;;20.02;49.36;100252.45;2954123;80;21034;-85
2022/05/13 17:48:58;;;;;;;7.85;3.00;;;;;;;19.92;49.30;100255.45;2913953;81;21074;-85
2022/05/13 17:52:59;;;;;;;6.53;2.47;;;;;;;19.84;48.92;100263.93;2905650;81;20978;-84
2022/05/13 17:57:01;;;;;;;4.25;1.87;;;;;;;19.76;49.66;100268.62;2936464;80;21023;-85
2022/05/13 18:01:04;;;;;;;4.00;2.37;;;;;;;19.61;48.67;100264.05;2919829;80;21069;-85
2022/05/13 18:05:06;;;;;;;3.87;2.40;;;;;;;19.57;48.89;100275.39;2906654;81;21096;-87
2022/05/13 18:09:07;;;;;;;8.50;2.77;;;;;;;19.51;48.69;100281.86;2909821;80;21445;-86
2022/05/13 18:13:10;;;;;;;2.92;2.10;;;;;;;19.43;48.50;100285.16;2890392;80;21101;-87
2022/05/13 18:17:12;;;;;;;12.40;3.33;;;;;;;19.33;48.88;100292.16;2924011;80;21003;-86
2022/05/13 18:21:16;;;;;;;13.88;2.72;;;;;;;19.26;49.12;100294.25;2911160;80;21051;-84
2022/05/13 18:25:17;;;;;;;8.10;2.12;;;;;;;19.13;49.39;100305.63;2874289;80;21038;-85
2022/05/13 18:29:19;;;;;;;5.62;2.30;;;;;;;18.96;50.42;100312.99;2921209;80;21022;-85
2022/05/13 18:33:21;;;;;;;5.95;3.27;;;;;;;18.77;50.34;100314.83;2933469;80;21018;-84
2022/05/13 18:37:22;;;;;;;12.50;2.62;;;;;;;18.66;50.98;100323.63;2923639;80;21027;-85
2022/05/13 18:46:27;;;;;;;3.05;2.22;;;;;;;18.21;52.07;100346.28;2925249;80;21034;-85
2022/05/13 18:49:48;;;;;;;4.35;2.50;;;;;;;18.07;52.02;100353.73;2918215;80;20995;-85
2022/05/13 18:53:49;;;;;;;3.62;2.62;;;;;;;17.92;52.09;100363.00;2924194;80;21043;-85
2022/05/13 18:57:50;;;;;;;4.85;2.80;;;;;;;17.82;52.51;100371.27;2896973;81;21050;-85
2022/05/13 19:01:52;;;;;;;9.43;2.80;;;;;;;17.70;52.86;100372.13;2929657;80;21043;-84
2022/05/13 19:05:53;;;;;;;3.17;2.90;;;;;;;17.60;53.28;100376.83;2927648;80;20982;-85
2022/05/13 19:09:54;;;;;;;4.62;3.33;;;;;;;17.45;54.15;100378.85;2924070;80;21022;-85
2022/05/13 19:13:55;;;;;;;5.37;2.75;;;;;;;17.27;54.48;100391.95;2896318;80;21030;-85
2022/05/13 19:17:57;;;;;;;5.42;3.50;;;;;;;17.13;54.78;100393.46;2923341;80;21002;-85
2022/05/13 19:21:58;;;;;;;5.87;3.08;;;;;;;17.01;55.08;100402.02;2924398;80;20987;-85
2022/05/13 19:26:09;;;;;;;6.22;3.00;;;;;;;16.90;55.50;100403.14;2915362;80;21054;-85
2022/05/13 19:30:13;;;;;;;7.28;4.03;;;;;;;16.82;55.99;100403.95;2923395;80;21025;-85
2022/05/13 19:34:14;;;;;;;7.10;3.65;;;;;;;16.73;56.33;100408.98;2940788;80;21046;-84
2022/05/13 19:38:15;;;;;;;133.60;22.60;;;;;;;16.59;57.14;100407.25;2902540;80;22419;-84
2022/05/13 19:42:17;;;;;;;28.30;8.13;;;;;;;16.41;57.06;100424.30;2922076;79;21031;-83
2022/05/13 19:46:22;;;;;;;20.90;5.90;;;;;;;16.31;57.19;100423.59;2943737;80;20980;-84
2022/05/13 19:50:25;;;;;;;177.57;34.67;;;;;;;16.17;57.41;100425.52;2933681;80;21036;-84